createdAt,value
2022-12-23T00:00:15.805Z,21.70
2022-12-23T00:02:44.027Z,29.42
2022-12-23T00:05:13.856Z,29.70
2022-12-23T00:07:41.744Z,27.85
2022-12-23T00:10:10.747Z,32.33
2022-12-23T00:12:55.990Z,29.03
2022-12-23T00:15:25.152Z,30.00
2022-12-23T00:17:52.982Z,32.95
2022-12-23T00:20:21.100Z,34.60
2022-12-23T00:23:07.351Z,39.92
2022-12-23T00:25:44.684Z,43.73
2022-12-23T00:28:14.876Z,40.58
2022-12-23T00:30:50.027Z,39.05
2022-12-23T00:33:19.707Z,43.15
2022-12-23T00:35:48.004Z,43.00
2022-12-23T00:38:16.590Z,43.20
2022-12-23T00:41:02.020Z,44.50
2022-12-23T00:43:29.802Z,44.92
2022-12-23T00:45:59.049Z,41.00
2022-12-23T00:48:44.627Z,38.65
2022-12-23T00:51:12.450Z,38.80
2022-12-23T00:53:40.234Z,34.88
2022-12-23T00:56:08.670Z,38.88
2022-12-23T00:58:36.492Z,33.72
2022-12-23T01:01:23.315Z,35.22
2022-12-23T01:04:09.267Z,30.43
2022-12-23T01:06:37.221Z,33.55
2022-12-23T01:09:05.238Z,35.60
2022-12-23T01:11:33.083Z,43.72
2022-12-23T01:14:01.179Z,40.05
2022-12-23T01:16:30.381Z,42.90
2022-12-23T01:18:58.198Z,43.22
2022-12-23T01:21:26.118Z,45.47
2022-12-23T01:23:53.906Z,46.13
2022-12-23T01:26:21.746Z,40.40
2022-12-23T01:28:49.551Z,46.90
2022-12-23T01:31:17.491Z,53.22
2022-12-23T01:33:46.964Z,47.70
2022-12-23T01:36:14.961Z,48.72
2022-12-23T01:38:42.769Z,49.80
2022-12-23T01:41:33.507Z,51.90
2022-12-23T01:44:00.346Z,48.97
2022-12-23T01:46:28.267Z,52.58
2022-12-23T01:48:58.419Z,50.92
2022-12-23T01:51:29.548Z,49.35
2022-12-23T01:54:01.068Z,47.57
2022-12-23T01:56:33.907Z,44.33
2022-12-23T01:59:03.511Z,51.15
2022-12-23T02:01:49.209Z,49.25
2022-12-23T02:04:21.030Z,45.70
2022-12-23T02:07:09.132Z,44.27
2022-12-23T02:09:38.731Z,41.58
2022-12-23T02:12:34.299Z,45.05
2022-12-23T02:15:30.245Z,47.35
2022-12-23T02:18:10.859Z,51.20
2022-12-23T02:21:11.924Z,58.27
2022-12-23T02:24:18.435Z,60.38
2022-12-23T02:27:09.410Z,59.17
2022-12-23T02:30:25.287Z,55.92
2022-12-23T02:33:10.433Z,52.13
2022-12-23T02:35:45.355Z,50.03
2022-12-23T02:38:17.324Z,50.95
2022-12-23T02:40:54.781Z,44.42
2022-12-23T02:43:30.996Z,43.03
2022-12-23T02:46:05.712Z,52.28
2022-12-23T02:48:39.782Z,48.60
2022-12-23T02:51:09.906Z,47.00
2022-12-23T02:53:43.496Z,50.10
2022-12-23T02:56:12.970Z,38.88
2022-12-23T02:58:45.378Z,48.97
2022-12-23T03:01:16.248Z,52.57
2022-12-23T03:03:48.471Z,45.67
2022-12-23T03:06:21.628Z,53.33
2022-12-23T03:08:53.592Z,48.97
2022-12-23T03:11:21.652Z,46.88
2022-12-23T03:14:21.404Z,49.40
2022-12-23T03:16:54.654Z,52.40
2022-12-23T03:19:31.705Z,54.42
2022-12-23T03:22:09.991Z,50.55
2022-12-23T03:24:44.900Z,46.97
2022-12-23T03:27:17.571Z,57.60
2022-12-23T03:29:54.596Z,58.13
2022-12-23T03:32:23.987Z,53.13
2022-12-23T03:34:58.129Z,63.22
2022-12-23T03:37:28.203Z,49.53
2022-12-23T03:40:01.755Z,53.97
2022-12-23T03:42:31.835Z,52.67
2022-12-23T03:47:55.763Z,41.95
2022-12-23T03:50:25.871Z,50.90
2022-12-23T03:52:58.305Z,55.87
2022-12-23T03:55:31.467Z,43.33
2022-12-23T03:58:04.877Z,44.83
2022-12-23T04:00:37.038Z,42.50
2022-12-23T04:03:14.203Z,39.58
2022-12-23T04:05:48.132Z,36.43
2022-12-23T04:08:21.404Z,36.42
2022-12-23T04:10:50.173Z,34.67
2022-12-23T04:13:18.077Z,38.15
2022-12-23T04:15:46.380Z,35.10
2022-12-23T04:18:16.201Z,35.43
2022-12-23T04:20:45.445Z,37.65
2022-12-23T04:23:13.210Z,34.42
2022-12-23T04:25:41.093Z,30.67
2022-12-23T04:28:08.920Z,31.85
2022-12-23T04:30:36.748Z,31.93
2022-12-23T04:33:04.972Z,32.35
2022-12-23T04:35:32.883Z,32.33
2022-12-23T04:38:02.050Z,32.38
2022-12-23T04:40:29.831Z,31.77
2022-12-23T04:42:57.640Z,28.33
2022-12-23T04:45:25.471Z,28.70
2022-12-23T04:47:54.388Z,29.00
2022-12-23T04:50:22.299Z,24.63
2022-12-23T04:52:50.327Z,27.42
2022-12-23T04:55:19.657Z,24.77
2022-12-23T04:57:50.631Z,21.08
2022-12-23T05:00:19.360Z,22.75
2022-12-23T05:02:47.545Z,25.08
2022-12-23T05:05:15.618Z,26.10
2022-12-23T05:07:43.500Z,26.57
2022-12-23T05:10:12.110Z,26.02
2022-12-23T05:12:41.363Z,26.73
2022-12-23T05:15:09.827Z,25.15
2022-12-23T05:17:37.687Z,24.75
2022-12-23T05:20:06.468Z,22.23
2022-12-23T05:22:34.285Z,21.80
2022-12-23T05:25:02.039Z,23.98
2022-12-23T05:27:29.906Z,23.98
2022-12-23T05:29:59.012Z,25.23
2022-12-23T05:32:26.803Z,21.83
2022-12-23T05:34:54.710Z,22.17
2022-12-23T05:37:22.433Z,25.10
2022-12-23T05:39:50.306Z,21.92
2022-12-23T05:42:19.468Z,20.67
2022-12-23T05:44:47.412Z,20.87
2022-12-23T05:47:16.642Z,21.20
2022-12-23T05:49:44.370Z,19.10
2022-12-23T05:52:12.087Z,20.83
2022-12-23T05:54:40.011Z,20.33
2022-12-23T05:57:07.799Z,21.77
2022-12-23T05:59:35.560Z,21.55
2022-12-23T06:02:03.482Z,23.13
2022-12-23T06:04:32.832Z,23.52
2022-12-23T06:07:00.908Z,24.00
2022-12-23T06:09:28.751Z,23.07
2022-12-23T06:11:56.566Z,24.98
2022-12-23T06:14:28.825Z,26.48
2022-12-23T06:16:57.587Z,27.20
2022-12-23T06:19:25.731Z,23.33
2022-12-23T06:21:54.955Z,26.50
2022-12-23T06:24:23.325Z,22.00
2022-12-23T06:26:56.765Z,24.33
2022-12-23T06:29:25.558Z,29.73
2022-12-23T06:31:53.626Z,28.75
2022-12-23T06:34:21.544Z,26.60
2022-12-23T06:36:49.729Z,25.00
2022-12-23T06:39:18.903Z,26.48
2022-12-23T06:41:46.834Z,22.38
2022-12-23T06:44:14.670Z,27.08
2022-12-23T06:46:42.656Z,24.97
2022-12-23T06:49:13.502Z,25.67
2022-12-23T06:51:42.316Z,27.00
2022-12-23T06:54:11.259Z,28.40
2022-12-23T06:56:40.442Z,27.48
2022-12-23T06:59:08.282Z,29.57
2022-12-23T07:01:36.201Z,26.48
2022-12-23T07:04:04.556Z,27.58
2022-12-23T07:06:32.823Z,26.83
2022-12-23T07:09:01.097Z,26.45
2022-12-23T07:11:28.935Z,25.30
2022-12-23T07:13:59.515Z,27.75
2022-12-23T07:16:27.695Z,21.20
2022-12-23T07:18:55.714Z,23.10
2022-12-23T07:21:29.059Z,20.48
2022-12-23T07:23:58.039Z,22.60
2022-12-23T07:26:26.981Z,19.98
2022-12-23T07:28:54.957Z,23.42
2022-12-23T07:31:24.199Z,19.17
2022-12-23T07:33:52.088Z,19.45
2022-12-23T07:36:20.098Z,16.97
2022-12-23T07:38:51.215Z,18.33
2022-12-23T07:41:19.131Z,16.50
2022-12-23T07:43:47.184Z,16.15
2022-12-23T07:46:15.121Z,15.43
2022-12-23T07:48:44.433Z,14.03
2022-12-23T07:51:12.356Z,18.85
2022-12-23T07:53:40.194Z,14.95
2022-12-23T07:56:08.753Z,14.73
2022-12-23T07:58:36.527Z,14.38
2022-12-23T08:01:08.045Z,15.27
2022-12-23T08:03:37.653Z,16.13
2022-12-23T08:06:09.332Z,17.70
2022-12-23T08:08:37.121Z,18.02
2022-12-23T08:11:06.479Z,16.13
2022-12-23T08:13:36.209Z,17.27
2022-12-23T08:16:05.607Z,15.10
2022-12-23T08:18:35.731Z,16.38
2022-12-23T08:21:07.892Z,17.40
2022-12-23T08:23:35.990Z,15.38
2022-12-23T08:26:06.134Z,16.87
2022-12-23T08:28:35.501Z,18.98
2022-12-23T08:31:06.404Z,15.95
2022-12-23T08:33:34.985Z,16.35
2022-12-23T08:36:02.869Z,16.08
2022-12-23T08:38:32.464Z,13.37
2022-12-23T08:41:00.277Z,13.82
2022-12-23T08:43:35.223Z,12.27
2022-12-23T08:46:03.602Z,11.32
2022-12-23T08:48:31.592Z,11.60
2022-12-23T08:51:04.237Z,10.37
2022-12-23T08:53:34.354Z,9.27
2022-12-23T08:56:03.862Z,7.78
2022-12-23T08:58:32.376Z,6.85
2022-12-23T09:01:04.346Z,5.97
2022-12-23T09:03:32.258Z,6.33
2022-12-23T09:06:00.407Z,6.15
2022-12-23T09:08:28.201Z,7.70
2022-12-23T09:10:57.474Z,7.20
2022-12-23T09:13:36.721Z,7.28
2022-12-23T09:16:05.014Z,7.13
2022-12-23T09:18:33.037Z,5.47
2022-12-23T09:21:02.385Z,7.72
2022-12-23T09:23:30.310Z,6.93
2022-12-23T09:25:59.638Z,6.40
2022-12-23T09:28:27.831Z,7.47
2022-12-23T09:30:55.801Z,7.43
2022-12-23T09:33:23.757Z,9.02
2022-12-23T09:35:52.207Z,7.75
2022-12-23T09:38:20.180Z,6.97
2022-12-23T09:40:48.563Z,9.27
2022-12-23T09:43:26.811Z,7.85
2022-12-23T09:46:05.277Z,7.80
2022-12-23T09:48:36.948Z,9.23
2022-12-23T09:51:05.904Z,9.15
2022-12-23T09:53:46.379Z,8.40
2022-12-23T09:56:20.841Z,10.38
2022-12-23T09:58:56.216Z,12.90
2022-12-23T10:01:32.494Z,10.65
2022-12-23T10:04:25.771Z,8.82
2022-12-23T10:07:11.812Z,10.27
2022-12-23T10:09:42.585Z,10.32
2022-12-23T10:12:27.200Z,14.93
2022-12-23T10:14:59.922Z,9.43
2022-12-23T10:17:31.383Z,11.10
2022-12-23T10:20:01.804Z,9.83
2022-12-23T10:22:34.243Z,9.73
2022-12-23T10:25:04.344Z,16.65
2022-12-23T10:27:35.328Z,11.55
2022-12-23T10:30:42.615Z,10.15
2022-12-23T10:33:18.969Z,11.33
2022-12-23T10:36:02.442Z,13.23
2022-12-23T10:38:54.941Z,17.40
2022-12-23T10:41:35.543Z,18.25
2022-12-23T10:44:27.139Z,23.38
2022-12-23T10:47:08.117Z,11.77
2022-12-23T10:49:54.246Z,14.93
2022-12-23T10:52:24.824Z,25.80
2022-12-23T10:54:52.721Z,13.90
2022-12-23T10:57:22.819Z,16.73
2022-12-23T10:59:50.668Z,12.83
2022-12-23T11:02:45.816Z,18.55
2022-12-23T11:05:16.757Z,18.30
2022-12-23T11:07:46.904Z,23.27
2022-12-23T11:10:19.325Z,22.23
2022-12-23T11:12:48.802Z,18.30
2022-12-23T11:15:32.104Z,18.33
2022-12-23T11:18:04.216Z,15.82
2022-12-23T11:20:32.492Z,16.17
2022-12-23T11:23:02.780Z,17.17
2022-12-23T11:25:34.722Z,20.83
2022-12-23T11:28:07.602Z,17.42
2022-12-23T11:30:39.610Z,18.88
2022-12-23T11:33:22.305Z,21.75
2022-12-23T11:36:01.912Z,23.98
2022-12-23T11:38:29.902Z,16.57
2022-12-23T11:40:58.126Z,21.20
2022-12-23T11:43:27.832Z,18.45
2022-12-23T11:46:18.173Z,20.77
2022-12-23T11:48:54.320Z,18.63
2022-12-23T11:51:27.625Z,20.40
2022-12-23T11:54:01.765Z,16.40
2022-12-23T11:56:35.975Z,24.10
2022-12-23T11:59:07.501Z,15.05
2022-12-23T12:01:37.350Z,15.30
2022-12-23T12:04:09.841Z,14.67
2022-12-23T12:06:45.680Z,13.30
2022-12-23T12:09:15.328Z,12.02
2022-12-23T12:11:48.366Z,13.35
2022-12-23T12:14:23.997Z,10.38
2022-12-23T12:16:58.152Z,14.20
2022-12-23T12:19:36.719Z,10.00
2022-12-23T12:22:11.253Z,8.65
2022-12-23T12:24:45.586Z,9.77
2022-12-23T12:27:13.445Z,8.43
2022-12-23T12:29:48.161Z,8.67
2022-12-23T12:32:22.268Z,18.67
2022-12-23T12:34:55.787Z,10.10
2022-12-23T12:37:32.329Z,7.95
2022-12-23T12:40:03.665Z,6.93
2022-12-23T12:42:40.664Z,7.87
2022-12-23T12:45:17.589Z,6.50
2022-12-23T12:48:02.139Z,6.35
2022-12-23T12:50:43.408Z,7.60
2022-12-23T12:53:16.713Z,9.73
2022-12-23T12:55:49.224Z,7.57
2022-12-23T12:58:21.254Z,11.77
2022-12-23T13:01:01.738Z,9.25
2022-12-23T13:03:50.354Z,6.35
2022-12-23T13:06:31.320Z,7.45
2022-12-23T13:09:09.988Z,6.30
2022-12-23T13:11:45.299Z,7.85
2022-12-23T13:14:25.847Z,6.60
2022-12-23T13:17:01.227Z,8.02
2022-12-23T13:19:38.415Z,8.38
2022-12-23T13:22:09.825Z,9.13
2022-12-23T13:24:44.998Z,7.10
2022-12-23T13:27:20.337Z,6.75
2022-12-23T13:30:03.318Z,6.13
2022-12-23T13:32:53.804Z,9.07
2022-12-23T13:35:36.141Z,6.07
2022-12-23T13:38:18.523Z,6.13
2022-12-23T13:40:57.984Z,7.95
2022-12-23T13:43:32.579Z,5.38
2022-12-23T13:46:04.889Z,6.05
2022-12-23T13:48:39.447Z,6.80
2022-12-23T13:51:20.413Z,7.13
2022-12-23T13:54:12.325Z,6.80
2022-12-23T13:56:44.195Z,7.35
2022-12-23T13:59:13.486Z,7.72
2022-12-23T14:01:46.730Z,4.93
2022-12-23T14:04:36.527Z,4.75
2022-12-23T14:07:18.959Z,5.90
2022-12-23T14:09:53.230Z,4.55
2022-12-23T14:12:27.487Z,5.03
2022-12-23T14:15:22.446Z,6.27
2022-12-23T14:18:08.436Z,6.63
2022-12-23T14:20:49.515Z,6.03
2022-12-23T14:23:33.533Z,5.07
2022-12-23T14:26:22.047Z,5.15
2022-12-23T14:29:09.593Z,7.77
2022-12-23T14:31:41.494Z,4.93
2022-12-23T14:34:27.249Z,5.32
2022-12-23T14:37:31.145Z,8.18
2022-12-23T14:39:59.584Z,8.25
2022-12-23T14:42:40.660Z,8.23
2022-12-23T14:45:30.086Z,8.35
2022-12-23T14:47:58.288Z,7.82
2022-12-23T14:50:41.603Z,7.85
2022-12-23T14:53:33.380Z,8.00
2022-12-23T14:56:41.524Z,7.60
2022-12-23T14:59:22.295Z,12.48
2022-12-23T15:01:54.099Z,13.23
2022-12-23T15:04:25.395Z,10.02
2022-12-23T15:07:00.845Z,10.52
2022-12-23T15:09:34.720Z,8.67
2022-12-23T15:12:08.873Z,8.05
2022-12-23T15:14:44.035Z,8.02
2022-12-23T15:17:26.431Z,8.15
2022-12-23T15:20:06.832Z,9.10
2022-12-23T15:22:35.522Z,8.27
2022-12-23T15:25:06.712Z,8.75
2022-12-23T15:27:43.508Z,10.23
2022-12-23T15:30:14.977Z,9.57
2022-12-23T15:32:47.872Z,9.80
2022-12-23T15:35:23.327Z,10.80
2022-12-23T15:37:54.194Z,9.95
2022-12-23T15:40:27.068Z,10.70
2022-12-23T15:42:55.944Z,9.23
2022-12-23T15:45:35.663Z,8.18
2022-12-23T15:48:05.839Z,10.33
2022-12-23T15:50:42.254Z,11.18
2022-12-23T15:53:11.831Z,10.13
2022-12-23T15:55:41.255Z,12.23
2022-12-23T15:58:11.506Z,10.23
2022-12-23T16:00:51.317Z,9.60
2022-12-23T16:03:28.881Z,11.50
2022-12-23T16:06:11.364Z,11.40
2022-12-23T16:08:43.227Z,12.40
2022-12-23T16:11:18.668Z,11.65
2022-12-23T16:14:00.469Z,12.87
2022-12-23T16:16:38.212Z,12.27
2022-12-23T16:19:06.340Z,14.18
2022-12-23T16:21:39.943Z,13.98
2022-12-23T16:24:11.896Z,15.27
2022-12-23T16:26:42.728Z,16.13
2022-12-23T16:29:12.305Z,17.05
2022-12-23T16:31:55.801Z,17.70
2022-12-23T16:34:31.443Z,14.15
2022-12-23T16:37:00.517Z,13.93
2022-12-23T16:39:29.614Z,13.00
2022-12-23T16:42:02.663Z,12.63
2022-12-23T16:44:33.341Z,12.63
2022-12-23T16:47:07.865Z,12.45
2022-12-23T16:49:38.035Z,14.02
2022-12-23T16:52:09.255Z,13.10
2022-12-23T16:54:39.926Z,11.73
2022-12-23T16:57:07.772Z,12.55
2022-12-23T16:59:35.659Z,14.02
2022-12-23T17:02:04.841Z,15.55
2022-12-23T17:04:33.397Z,11.43
2022-12-23T17:07:06.892Z,12.93
2022-12-23T17:09:34.784Z,13.05
2022-12-23T17:12:02.652Z,9.43
2022-12-23T17:14:30.951Z,12.27
2022-12-23T17:16:58.979Z,13.23
2022-12-23T17:19:28.866Z,10.82
2022-12-23T17:22:02.041Z,10.45
2022-12-23T17:24:30.114Z,10.77
2022-12-23T17:26:58.255Z,9.77
2022-12-23T17:29:26.364Z,9.23
2022-12-23T17:31:54.681Z,15.60
2022-12-23T17:34:24.425Z,21.88
2022-12-23T17:36:53.830Z,15.35
2022-12-23T17:39:21.911Z,11.38
2022-12-23T17:41:49.911Z,13.30
2022-12-23T17:44:18.848Z,11.02
2022-12-23T17:46:47.656Z,10.50
2022-12-23T17:49:15.915Z,11.57
2022-12-23T17:51:44.289Z,9.85
2022-12-23T17:54:21.956Z,10.87
2022-12-23T17:56:50.797Z,9.88
2022-12-23T17:59:22.671Z,10.57
2022-12-23T18:01:50.870Z,10.38
2022-12-23T18:04:21.802Z,12.50
2022-12-23T18:06:51.597Z,12.07
2022-12-23T18:09:23.317Z,9.90
2022-12-23T18:11:51.225Z,8.35
2022-12-23T18:14:25.199Z,7.90
2022-12-23T18:16:53.462Z,8.60
2022-12-23T18:19:23.900Z,9.17
2022-12-23T18:21:54.463Z,8.85
2022-12-23T18:24:23.888Z,9.77
2022-12-23T18:26:52.056Z,10.10
2022-12-23T18:29:20.237Z,9.18
2022-12-23T18:31:51.927Z,8.97
2022-12-23T18:34:21.610Z,9.32
2022-12-23T18:36:51.429Z,8.73
2022-12-23T18:39:20.183Z,10.40
2022-12-23T18:41:49.897Z,8.60
2022-12-23T18:44:19.869Z,8.83
2022-12-23T18:46:48.216Z,7.70
2022-12-23T18:49:16.268Z,9.13
2022-12-23T18:51:44.198Z,8.93
2022-12-23T18:54:14.539Z,8.98
2022-12-23T18:56:42.393Z,10.73
2022-12-23T18:59:20.096Z,11.15
2022-12-23T19:01:51.313Z,12.70
2022-12-23T19:04:19.162Z,11.35
2022-12-23T19:06:47.365Z,12.32
2022-12-23T19:09:20.329Z,11.60
2022-12-23T19:11:49.881Z,10.13
2022-12-23T19:14:19.443Z,10.27
2022-12-23T19:16:51.548Z,11.77
2022-12-23T19:19:20.774Z,11.60
2022-12-23T19:21:48.957Z,9.50
2022-12-23T19:24:17.086Z,9.68
2022-12-23T19:26:45.250Z,8.07
2022-12-23T19:29:13.438Z,11.10
2022-12-23T19:31:43.422Z,8.65
2022-12-23T19:34:15.386Z,11.40
2022-12-23T19:36:43.754Z,11.80
2022-12-23T19:39:16.150Z,13.15
2022-12-23T19:41:45.097Z,12.70
2022-12-23T19:44:14.338Z,11.88
2022-12-23T19:46:43.955Z,9.53
2022-12-23T19:49:19.196Z,8.25
2022-12-23T19:51:48.878Z,10.60
2022-12-23T19:54:17.394Z,9.02
2022-12-23T19:56:46.073Z,10.43
2022-12-23T19:59:14.136Z,12.13
2022-12-23T20:01:46.806Z,9.60
2022-12-23T20:04:14.863Z,12.02
2022-12-23T20:06:43.424Z,10.35
2022-12-23T20:09:14.546Z,10.95
2022-12-23T20:11:44.303Z,9.90
2022-12-23T20:14:17.613Z,10.98
2022-12-23T20:16:48.276Z,10.10
2022-12-23T20:19:16.699Z,11.30
2022-12-23T20:21:46.363Z,11.77
2022-12-23T20:24:18.633Z,13.00
2022-12-23T20:26:46.535Z,10.63
2022-12-23T20:29:15.123Z,9.88
2022-12-23T20:31:47.797Z,8.57
2022-12-23T20:34:18.247Z,10.55
2022-12-23T20:36:46.304Z,9.23
2022-12-23T20:39:14.761Z,9.57
2022-12-23T20:41:42.618Z,9.70
2022-12-23T20:44:33.823Z,9.85
2022-12-23T20:46:59.860Z,9.18
2022-12-23T20:49:27.746Z,9.73
2022-12-23T20:51:55.553Z,8.70
2022-12-23T20:54:32.202Z,10.88
2022-12-23T20:57:02.097Z,13.30
2022-12-23T20:59:30.142Z,12.23
2022-12-23T21:01:59.839Z,16.60
2022-12-23T21:04:28.323Z,13.00
2022-12-23T21:06:56.253Z,16.67
2022-12-23T21:09:24.047Z,17.80
2022-12-23T21:11:51.939Z,19.63
2022-12-23T21:14:20.308Z,18.13
2022-12-23T21:16:48.136Z,19.17
2022-12-23T21:19:19.467Z,19.75
2022-12-23T21:21:48.181Z,18.65
2022-12-23T21:24:16.784Z,19.25
2022-12-23T21:26:47.758Z,24.57
2022-12-23T21:29:20.349Z,21.45
2022-12-23T21:31:48.580Z,24.55
2022-12-23T21:34:18.062Z,22.42
2022-12-23T21:36:45.992Z,19.42
2022-12-23T21:39:16.735Z,20.33
2022-12-23T21:41:45.878Z,19.20
2022-12-23T21:44:14.748Z,23.83
2022-12-23T21:46:42.845Z,21.35
2022-12-23T21:49:10.879Z,21.75
2022-12-23T21:51:41.464Z,19.63
2022-12-23T21:54:11.382Z,17.95
2022-12-23T21:56:40.957Z,21.00
2022-12-23T21:59:12.125Z,19.65
2022-12-23T22:01:40.567Z,19.85
2022-12-23T22:04:08.719Z,18.33
2022-12-23T22:06:38.562Z,20.00
2022-12-23T22:09:08.956Z,20.40
2022-12-23T22:11:37.811Z,20.90
2022-12-23T22:14:07.531Z,13.93
2022-12-23T22:16:36.721Z,10.03
2022-12-23T22:19:06.959Z,11.80
2022-12-23T22:21:35.396Z,17.83
2022-12-23T22:24:03.932Z,8.52
2022-12-23T22:26:34.648Z,12.15
2022-12-23T22:29:04.686Z,11.97
2022-12-23T22:31:36.550Z,8.23
2022-12-23T22:34:04.724Z,10.05
2022-12-23T22:36:32.751Z,8.65
2022-12-23T22:39:01.872Z,9.88
2022-12-23T22:41:30.882Z,12.60
2022-12-23T22:44:01.172Z,11.45
2022-12-23T22:46:29.462Z,9.15
2022-12-23T22:48:58.844Z,9.32
2022-12-23T22:51:28.600Z,9.32
2022-12-23T22:53:57.120Z,5.97
2022-12-23T22:56:26.310Z,5.53
2022-12-23T22:58:54.953Z,14.85
2022-12-23T23:01:27.165Z,8.05
2022-12-23T23:03:57.771Z,9.27
2022-12-23T23:06:26.691Z,8.87
2022-12-23T23:08:55.028Z,6.60
2022-12-23T23:11:23.770Z,6.05
2022-12-23T23:13:52.308Z,8.85
2022-12-23T23:16:20.274Z,9.32
2022-12-23T23:18:49.626Z,10.07
2022-12-23T23:21:17.864Z,12.18
2022-12-23T23:23:45.943Z,8.48
2022-12-23T23:26:14.147Z,7.63
2022-12-23T23:28:42.244Z,7.70
2022-12-23T23:31:41.338Z,8.53
2022-12-23T23:34:00.069Z,10.88
2022-12-23T23:36:28.035Z,6.10
2022-12-23T23:38:56.121Z,6.72
2022-12-23T23:41:24.370Z,9.15
2022-12-23T23:43:52.683Z,9.70
2022-12-23T23:46:21.205Z,11.95
2022-12-23T23:48:51.336Z,16.27
2022-12-23T23:51:20.537Z,13.98
2022-12-23T23:53:48.413Z,13.18
2022-12-23T23:56:21.972Z,18.00
2022-12-23T23:58:52.814Z,20.25
